Hinkle, KY (40953)

9:14 PM EDT on July 24, 2016 (GMT -0400)
Mackey Bend | | Change Station

Elev 1010 ft 36.81 °N, 83.96 °W | Updated 1 minute ago

Clear
Clear
82.2 °F
Feels Like 92 °F
N
0.0
Wind Variable Wind from NNE

Today
High -- | Low -- °F
--% Chance of Precip.
Yesterday
High -- | Low -- °F
Precip. -- in
Pressure 30.05 in
Visibility 10.0 miles
Clouds Clear
Heat Index 92 °F
Dew Point 79 °F
Humidity 91%
Rainfall 0.00 in
Snow Depth Not available.
6:34 AM 8:48 PM
Waning Gibbous, 71% visible
METAR K1A6 250055Z AUTO 25003KT 10SM CLR 28/24 A3005 RMK AO2 T02790238
Pressure 30.05 in
Visibility 10.0 miles
Clouds Clear
Heat Index 92 °F
Dew Point 79 °F
Humidity 91%
Rainfall 0.00 in
Snow Depth Not available.
6:34 AM 8:48 PM
Waning Gibbous, 71% visible
METAR K1A6 250055Z AUTO 25003KT 10SM CLR 28/24 A3005 RMK AO2 T02790238

10-Day Weather Forecast

Almanac

Astronomy

Jul. 24, 2016 Rise Set
Actual Time
Civil Twilight
Nautical Twilight
Astronomical Twilight
Moon
Length of Visible Light
Length of Day
Tomorrow will be .
, % of the Moon is Illuminated

Today's Extremes

State Highs State Lows

Community

WunderPhotos

Upload Photos

1,927,225 photos uploaded!

WunderBlog® & News

Nearby

Air Quality

  Air Quality AQ Index Pollutant
Not available.

Snow Depth

Station Depth Elevation

Earthquake Activity

City Distance Mag. Time & Date
Minimum magnitude displayed is 2.5.

Coastal Water Temperatures

Place Temperature

Stations

Nearby Weather Stations

Station Location Temp. Windchill Dew Point Humidity Wind Precip. Elev Updated Type
                   

Watches & Warnings

There are currently no watches in effect.